»·PEaware :: SWA377 KSLC-KLAS

SWA377 :: KSLC-KLAS

FLIGHT INFORMATION

Flight Status: Arrived
Operator:
Southwest Airlines
More flights by this operator :: More flights under this callsign
Pilot: Anonymous 14085 (14085)
Aircraft: BOEING 737-300
(B733)
More flights by this aircraft type
Origin: KSLC Salt Lake City Intl
United States
Destination: KLAS McCarran Intl
United States
More flights between these airports :: More routes between these airports
Route: +WEVIC5 EHK KSINO SITEE1
File this flight plan on PilotEdge
Remarks: PBN / A1B3B4B5D3D4 DOF / 170531 REG / N372SB EET / KZLA0033 OPR / SWA RMK / TCAS SIMBRIEF
Altitude:
(Current/Filed)
34,000ft
Speed:
(Current/Filed)
429kts
Departed: 31-May-17 03:08 PM
Arrived: 31-May-17 04:04 PM
Distance/Time
Traveled:
319nm/0:56
Distance/Time
To Go:
Arrived

Flight Plot

Page will automatically refresh every two minutes.

Flight plan parsing failed; only flown route is shown


Map Options




Map Legend


Flown Route
Filed Route
Departure Airport
Arrival Airport
Navaid (VOR, NDB)
Fix

Horizontal Profiles

Position Reports

Time Latitude Longitude Heading Altitude Ground
Speed
31-May-17 14:51 40.787036 -111.977945 313 4234ft 0kts
31-May-17 14:52 40.787036 -111.977945 313 4234ft 0kts
31-May-17 14:53 40.787036 -111.977945 313 4234ft 0kts
31-May-17 14:54 40.787036 -111.977945 313 4234ft 0kts
31-May-17 14:55 40.787036 -111.977945 313 4234ft 0kts
31-May-17 14:56 40.787036 -111.977945 313 4234ft 0kts
31-May-17 14:57 40.787036 -111.977945 313 4234ft 0kts
31-May-17 14:58 40.787036 -111.977945 313 4234ft 0kts
31-May-17 14:59 40.787036 -111.977945 313 4234ft 0kts
31-May-17 15:00 40.787036 -111.977945 313 4234ft 0kts
31-May-17 15:01 40.787036 -111.977945 313 4234ft 0kts
31-May-17 15:02 40.787036 -111.977945 313 4234ft 0kts
31-May-17 15:03 40.786722 -111.977501 312 4234ft 0kts
31-May-17 15:04 40.786722 -111.977501 312 4234ft 0kts
31-May-17 15:05 40.787012 -111.977486 22 4234ft 10kts
31-May-17 15:06 40.787012 -111.977486 22 4234ft 10kts
31-May-17 15:07 40.791555 -111.977258 356 4234ft 33kts
31-May-17 15:08 40.800924 -111.978353 356 4234ft 34kts
31-May-17 15:09 40.806841 -111.978672 5 4234ft 19kts
31-May-17 15:10 40.795198 -111.975501 174 4249ft 157kts
31-May-17 15:11 40.739714 -111.965693 171 6474ft 264kts
31-May-17 15:12 40.664883 -111.958136 178 10505ft 289kts
31-May-17 15:13 40.584198 -111.955672 178 13832ft 311kts
31-May-17 15:14 40.513218 -111.953559 178 14084ft 309kts
31-May-17 15:15 40.408221 -111.948431 176 16053ft 364kts
31-May-17 15:16 40.307741 -111.941458 176 19426ft 370kts
31-May-17 15:17 40.203558 -111.949223 187 22204ft 394kts
31-May-17 15:18 40.089236 -111.966540 186 24375ft 426kts
31-May-17 15:19 39.989796 -111.981113 186 25965ft 439kts
31-May-17 15:20 39.848788 -112.001685 186 28150ft 438kts
31-May-17 15:21 39.750860 -112.015914 186 30834ft 427kts
31-May-17 15:22 39.633023 -112.033001 186 33450ft 423kts
31-May-17 15:23 39.515450 -112.049993 186 33976ft 435kts
31-May-17 15:24 39.370124 -112.070765 186 34003ft 457kts
31-May-17 15:25 39.265451 -112.085606 186 34001ft 457kts
31-May-17 15:26 39.139403 -112.103964 191 33995ft 457kts
31-May-17 15:27 39.009790 -112.195013 209 33988ft 462kts
31-May-17 15:28 38.916584 -112.262954 209 34003ft 463kts
31-May-17 15:29 38.806524 -112.342633 209 34003ft 463kts
31-May-17 15:30 38.694976 -112.423286 209 34001ft 463kts
31-May-17 15:31 38.583018 -112.503948 209 34001ft 463kts
31-May-17 15:32 38.471535 -112.583982 209 34001ft 463kts
31-May-17 15:33 38.360488 -112.663461 209 33985ft 463kts
31-May-17 15:34 38.248820 -112.743265 209 34002ft 463kts
31-May-17 15:35 38.136696 -112.822919 209 34001ft 463kts
31-May-17 15:36 38.024984 -112.901962 209 34001ft 463kts
31-May-17 15:37 37.912848 -112.981028 209 34001ft 463kts
31-May-17 15:38 37.808866 -113.053935 209 34003ft 463kts
31-May-17 15:39 37.701028 -113.141863 214 34008ft 460kts
31-May-17 15:40 37.602352 -113.226058 214 33523ft 426kts
31-May-17 15:41 37.503970 -113.309661 214 31173ft 433kts
31-May-17 15:42 37.403968 -113.394362 214 29287ft 438kts
31-May-17 15:43 37.303543 -113.479144 214 27422ft 442kts
31-May-17 15:44 37.201486 -113.565020 214 25552ft 445kts
31-May-17 15:45 37.104707 -113.646176 214 24493ft 397kts
31-May-17 15:46 37.017296 -113.719491 213 23974ft 395kts
31-May-17 15:47 36.925231 -113.796267 213 23010ft 397kts
31-May-17 15:48 36.842869 -113.864579 213 21148ft 383kts
31-May-17 15:49 36.761448 -113.932053 213 19285ft 372kts
31-May-17 15:50 36.677300 -114.001641 213 17308ft 362kts
31-May-17 15:51 36.595006 -114.069521 213 15601ft 346kts
31-May-17 15:52 36.535857 -114.162361 237 14514ft 345kts
31-May-17 15:53 36.485124 -114.261859 237 13423ft 339kts
31-May-17 15:54 36.435817 -114.358158 237 12347ft 334kts
31-May-17 15:55 36.386349 -114.454521 237 12174ft 333kts
31-May-17 15:56 36.339463 -114.545263 237 11641ft 300kts
31-May-17 15:57 36.295896 -114.629773 237 10366ft 292kts
31-May-17 15:58 36.256813 -114.705730 237 9774ft 282kts
31-May-17 15:59 36.208254 -114.780132 199 8291ft 284kts
31-May-17 16:00 36.131594 -114.800658 191 6824ft 285kts
31-May-17 16:01 36.071104 -114.856536 236 5448ft 280kts
31-May-17 16:02 36.072633 -114.942922 274 5137ft 239kts
31-May-17 16:03 36.073779 -115.018320 269 3854ft 202kts
31-May-17 16:04 36.073736 -115.077305 270 2844ft 155kts
31-May-17 16:05 36.073671 -115.126411 269 2167ft 144kts
31-May-17 16:06 36.075175 -115.146518 352 2118ft 7kts
31-May-17 16:07 36.077201 -115.146556 359 2118ft 17kts
31-May-17 16:08 36.079653 -115.146719 21 2118ft 0kts

Navigation Log

Ident Type
Flight plan parsing failed, navigation log unavailable